Time;durP1;ratioP1;P1;durP2;ratioP2;P2;SDS_P1;SDS_P2;PMS_P1;PMS_P2;Temp;Humidity;BMP_temperature;BMP_pressure;BME280_temperature;BME280_humidity;BME280_pressure;Samples;Min_cycle;Max_cycle;Signal;HPM_P1;HPM_P2
2021/07/07 00:01:45;;;;;;;18.08;12.85;;;665.70;2150.40;;;;;;5042330;28;20053;-78
2021/07/07 00:04:13;;;;;;;13.07;11.23;;;665.60;2176.00;;;;;;5037587;28;20424;-78
2021/07/07 00:06:45;;;;;;;15.70;11.20;;;665.60;2176.00;;;;;;5046639;28;20082;-78
2021/07/07 00:09:11;;;;;;;20.20;11.93;;;640.80;2150.40;;;;;;5043182;28;20117;-78
2021/07/07 00:11:36;;;;;;;13.68;10.68;;;640.60;2176.00;;;;;;5043958;28;20107;-78
2021/07/07 00:14:17;;;;;;;21.33;12.65;;;640.70;2176.00;;;;;;5044831;28;20051;-79
2021/07/07 00:16:43;;;;;;;16.27;12.20;;;640.70;2176.00;;;;;;5041812;28;20025;-78
2021/07/07 00:19:09;;;;;;;14.68;12.05;;;640.60;2176.00;;;;;;5043671;28;20514;-78
2021/07/07 00:21:47;;;;;;;12.30;11.02;;;640.60;2201.60;;;;;;5047669;28;20025;-78
2021/07/07 00:24:13;;;;;;;17.50;11.90;;;640.60;2201.60;;;;;;5047815;28;20083;-79
2021/07/07 00:26:39;;;;;;;15.50;12.10;;;640.60;2201.60;;;;;;5042509;28;20025;-78
2021/07/07 00:29:08;;;;;;;14.45;11.65;;;640.50;2201.60;;;;;;5054213;28;20063;-79
2021/07/07 00:31:34;;;;;;;12.60;10.93;;;640.50;2201.60;;;;;;5070644;28;20116;-78
2021/07/07 00:33:59;;;;;;;16.75;12.27;;;640.50;2201.60;;;;;;5061761;28;20120;-78
2021/07/07 00:36:28;;;;;;;17.67;11.65;;;640.50;2201.60;;;;;;5063369;28;20027;-78
2021/07/07 00:39:00;;;;;;;15.65;11.63;;;640.50;2201.60;;;;;;5066847;28;20108;-78
2021/07/07 00:41:28;;;;;;;19.88;11.63;;;640.50;2201.60;;;;;;5059466;28;20400;-78
2021/07/07 00:44:00;;;;;;;18.13;11.43;;;640.50;2201.60;;;;;;5066443;28;20029;-78
2021/07/07 00:46:29;;;;;;;17.77;11.95;;;640.40;2201.60;;;;;;5071929;28;20024;-79
2021/07/07 00:48:54;;;;;;;14.00;11.75;;;640.30;2201.60;;;;;;5058734;28;20032;-79
2021/07/07 00:51:20;;;;;;;17.33;11.73;;;640.30;2201.60;;;;;;5064193;28;20036;-78
2021/07/07 00:53:59;;;;;;;16.60;11.98;;;640.30;2201.60;;;;;;5071282;28;20564;-78
2021/07/07 00:56:25;;;;;;;14.45;11.85;;;640.40;2201.60;;;;;;5060299;28;20025;-78
2021/07/07 00:58:54;;;;;;;16.35;12.60;;;640.40;2201.60;;;;;;5055299;28;20025;-78
2021/07/07 01:01:20;;;;;;;17.50;11.65;;;640.50;2201.60;;;;;;5071611;28;20020;-78
2021/07/07 01:03:52;;;;;;;19.15;12.98;;;640.50;2201.60;;;;;;5058520;28;20044;-78
2021/07/07 01:06:17;;;;;;;15.50;12.68;;;640.50;2201.60;;;;;;5061922;28;20032;-78
2021/07/07 01:08:52;;;;;;;20.13;14.05;;;640.50;2176.00;;;;;;5057457;28;20453;-78
2021/07/07 01:11:18;;;;;;;17.97;12.67;;;640.50;2176.00;;;;;;5065671;28;20093;-78
2021/07/07 01:13:44;;;;;;;18.40;11.60;;;640.50;2176.00;;;;;;5060315;28;20121;-78
2021/07/07 01:16:16;;;;;;;17.02;11.45;;;640.50;2176.00;;;;;;5055066;28;20107;-78
2021/07/07 01:18:44;;;;;;;16.50;11.48;;;640.50;2176.00;;;;;;5067312;28;20432;-78
2021/07/07 01:21:14;;;;;;;15.15;11.77;;;640.50;2176.00;;;;;;5054732;28;20032;-78
2021/07/07 01:23:43;;;;;;;17.98;12.02;;;640.40;2201.60;;;;;;5066344;28;20029;-79
2021/07/07 01:26:09;;;;;;;15.73;11.75;;;640.30;2201.60;;;;;;5072703;28;20032;-79
2021/07/07 01:28:35;;;;;;;12.70;10.93;;;640.30;2201.60;;;;;;5062124;28;20059;-78
2021/07/07 01:31:03;;;;;;;18.02;12.25;;;640.30;2201.60;;;;;;5052844;28;20479;-79
2021/07/07 01:33:29;;;;;;;14.48;10.73;;;640.20;2227.20;;;;;;5052436;28;20025;-78
2021/07/07 01:36:04;;;;;;;21.55;11.90;;;640.00;2227.20;;;;;;5052586;28;20490;-78
2021/07/07 01:38:30;;;;;;;16.20;11.88;;;640.00;2252.80;;;;;;5051534;28;20032;-78
2021/07/07 01:40:57;;;;;;;16.48;12.85;;;640.00;2252.80;;;;;;5044428;28;20025;-78
2021/07/07 01:43:23;;;;;;;15.73;12.25;;;640.00;2252.80;;;;;;5052350;28;20025;-79
2021/07/07 01:45:48;;;;;;;16.13;11.93;;;640.00;2252.80;;;;;;5053648;28;20032;-79
2021/07/07 01:48:14;;;;;;;16.98;11.73;;;640.10;2252.80;;;;;;5038744;28;20471;-79
2021/07/07 01:50:40;;;;;;;21.40;12.15;;;640.00;2252.80;;;;;;5054344;28;20029;-79
2021/07/07 01:53:05;;;;;;;16.73;12.30;;;640.00;2252.80;;;;;;5049008;28;20036;-79
2021/07/07 01:55:31;;;;;;;14.05;12.45;;;640.00;2252.80;;;;;;5044528;28;20023;-79
2021/07/07 01:58:00;;;;;;;13.65;11.45;;;640.00;2252.80;;;;;;5051737;28;20055;-78
2021/07/07 02:00:32;;;;;;;16.20;11.85;;;640.00;2252.80;;;;;;5039460;28;20053;-77
2021/07/07 02:02:59;;;;;;;17.48;13.10;;;640.00;2252.80;;;;;;5070685;28;20032;-78
2021/07/07 02:05:30;;;;;;;17.63;12.02;;;640.00;2278.40;;;;;;5061985;28;20100;-78
2021/07/07 02:07:58;;;;;;;16.98;10.93;;;615.30;2278.40;;;;;;5069313;28;20028;-78
2021/07/07 02:10:24;;;;;;;16.50;12.27;;;640.00;2278.40;;;;;;5070362;28;20023;-79
2021/07/07 02:12:50;;;;;;;20.25;11.98;;;640.00;2278.40;;;;;;5075300;28;20037;-78
2021/07/07 02:15:25;;;;;;;17.25;12.45;;;640.00;2278.40;;;;;;5070153;28;20025;-78
2021/07/07 02:17:52;;;;;;;14.67;10.87;;;640.00;2278.40;;;;;;5073784;28;20010;-78
2021/07/07 02:20:21;;;;;;;16.85;13.82;;;640.00;2278.40;;;;;;5078803;28;20282;-78
2021/07/07 02:22:50;;;;;;;18.20;12.05;;;640.00;2278.40;;;;;;5056910;28;20075;-78
2021/07/07 02:25:22;;;;;;;20.02;12.70;;;640.00;2278.40;;;;;;5052896;28;20029;-78
2021/07/07 02:27:48;;;;;;;16.15;12.10;;;640.00;2278.40;;;;;;5044049;28;20060;-79
2021/07/07 02:30:21;;;;;;;15.70;12.00;;;615.30;2304.00;;;;;;5075031;28;20428;-79
2021/07/07 02:32:54;;;;;;;18.90;12.95;;;615.30;2304.00;;;;;;5074217;28;20051;-79
2021/07/07 02:35:31;;;;;;;13.65;11.57;;;615.30;2304.00;;;;;;5057245;28;20028;-79
2021/07/07 02:38:01;;;;;;;20.50;11.85;;;615.30;2304.00;;;;;;5056277;28;20109;-79
2021/07/07 02:40:31;;;;;;;17.00;12.23;;;615.20;2304.00;;;;;;5086208;28;20081;-78
2021/07/07 02:43:00;;;;;;;18.95;11.40;;;615.20;2304.00;;;;;;5059517;28;20028;-79
2021/07/07 02:45:34;;;;;;;19.95;12.25;;;615.20;2304.00;;;;;;5083309;28;20031;-79
2021/07/07 02:48:03;;;;;;;16.52;11.88;;;615.10;2304.00;;;;;;5060301;28;20024;-79
2021/07/07 02:50:33;;;;;;;13.45;11.80;;;615.20;2304.00;;;;;;5079350;28;20025;-79
2021/07/07 02:53:03;;;;;;;13.82;11.60;;;615.20;2329.60;;;;;;5079827;28;20017;-78
2021/07/07 02:55:28;;;;;;;17.95;13.20;;;615.20;2329.60;;;;;;5062176;28;20029;-78
2021/07/07 02:58:05;;;;;;;13.60;11.35;;;615.10;2329.60;;;;;;5070286;28;20020;-79
2021/07/07 03:00:31;;;;;;;14.75;12.13;;;615.10;2329.60;;;;;;5072048;28;20016;-79
2021/07/07 03:02:58;;;;;;;17.25;12.63;;;615.10;2329.60;;;;;;5066873;28;20427;-77
2021/07/07 03:05:27;;;;;;;20.25;13.25;;;615.10;2329.60;;;;;;5059929;28;20024;-78
2021/07/07 03:07:53;;;;;;;15.05;12.40;;;615.10;2329.60;;;;;;5089451;28;20024;-78
2021/07/07 03:10:25;;;;;;;16.42;13.40;;;615.10;2329.60;;;;;;5064215;28;20386;-78
2021/07/07 03:12:54;;;;;;;15.70;12.23;;;615.10;2329.60;;;;;;5072467;28;20016;-78
2021/07/07 03:15:20;;;;;;;15.98;11.07;;;615.10;2329.60;;;;;;5064409;28;20032;-78
2021/07/07 03:17:55;;;;;;;16.15;13.35;;;615.10;2329.60;;;;;;5067952;28;20020;-78
2021/07/07 03:20:27;;;;;;;16.45;12.02;;;615.10;2329.60;;;;;;5064196;28;20067;-78
2021/07/07 03:23:16;;;;;;;16.60;13.05;;;615.10;2329.60;;;;;;5083657;28;21456;-79
2021/07/07 03:25:50;;;;;;;15.20;13.02;;;615.10;2329.60;;;;;;5075973;28;20429;-80
2021/07/07 03:28:32;;;;;;;14.55;12.95;;;615.20;2304.00;;;;;;5076092;28;20147;-79
2021/07/07 03:31:09;;;;;;;18.58;13.38;;;615.20;2304.00;;;;;;5068950;28;20017;-80
2021/07/07 03:33:45;;;;;;;16.65;12.55;;;615.30;2304.00;;;;;;5092413;28;20115;-80
2021/07/07 03:36:11;;;;;;;16.05;11.93;;;640.00;2304.00;;;;;;5069448;28;20540;-79
2021/07/07 03:38:36;;;;;;;22.85;14.05;;;640.00;2278.40;;;;;;5071933;28;20028;-79
2021/07/07 03:41:08;;;;;;;19.77;13.88;;;640.00;2278.40;;;;;;5066339;28;20035;-79
2021/07/07 03:43:36;;;;;;;19.50;13.25;;;640.00;2278.40;;;;;;5070754;28;20064;-79
2021/07/07 03:46:08;;;;;;;17.80;12.63;;;640.10;2278.40;;;;;;5070110;28;20059;-80
2021/07/07 03:48:37;;;;;;;20.20;13.27;;;640.20;2278.40;;;;;;5070031;28;20023;-79
2021/07/07 03:51:02;;;;;;;18.52;13.93;;;640.10;2278.40;;;;;;5072626;28;20028;-78
2021/07/07 03:53:28;;;;;;;21.58;13.73;;;640.10;2278.40;;;;;;5087432;28;20063;-78
2021/07/07 03:56:00;;;;;;;17.55;12.25;;;640.20;2252.80;;;;;;5068122;28;20028;-79
2021/07/07 03:58:25;;;;;;;18.55;12.80;;;640.40;2252.80;;;;;;5077870;28;20032;-79
2021/07/07 04:00:51;;;;;;;15.95;12.32;;;640.50;2227.20;;;;;;5076169;28;20020;-78
2021/07/07 04:03:29;;;;;;;17.67;12.43;;;640.60;2227.20;;;;;;5062977;28;20391;-78
2021/07/07 04:05:55;;;;;;;18.15;13.73;;;640.70;2227.20;;;;;;5063246;28;20153;-78
2021/07/07 04:08:20;;;;;;;16.67;13.70;;;640.80;2227.20;;;;;;5083124;28;20029;-78
2021/07/07 04:10:46;;;;;;;14.30;12.35;;;640.80;2227.20;;;;;;5066687;28;20167;-78
2021/07/07 04:13:12;;;;;;;22.10;13.35;;;665.60;2227.20;;;;;;5061330;28;20114;-78
2021/07/07 04:15:47;;;;;;;19.60;13.95;;;665.70;2227.20;;;;;;5081929;28;20155;-78
2021/07/07 04:18:15;;;;;;;28.13;12.52;;;665.80;2201.60;;;;;;5070990;28;20485;-78
2021/07/07 04:20:44;;;;;;;20.95;13.23;;;666.00;2201.60;;;;;;5071640;28;20467;-78
2021/07/07 04:23:13;;;;;;;17.63;12.60;;;666.20;2176.00;;;;;;5069627;28;20024;-78
2021/07/07 04:25:45;;;;;;;20.48;13.93;;;666.30;2176.00;;;;;;5062520;28;20067;-78
2021/07/07 04:28:10;;;;;;;24.00;13.48;;;666.30;2176.00;;;;;;5066163;28;20033;-79
2021/07/07 04:30:36;;;;;;;22.27;12.38;;;666.50;2150.40;;;;;;5052142;28;20036;-78
2021/07/07 04:33:03;;;;;;;19.58;12.20;;;691.20;2150.40;;;;;;5051926;28;20025;-78
2021/07/07 04:35:29;;;;;;;21.73;13.10;;;691.40;2124.80;;;;;;5034438;28;20032;-78
2021/07/07 04:37:55;;;;;;;24.45;12.57;;;691.40;2124.80;;;;;;5034463;28;20028;-78
2021/07/07 04:40:25;;;;;;;14.77;12.15;;;691.60;2099.20;;;;;;5040360;28;20029;-78
2021/07/07 04:42:55;;;;;;;19.83;11.80;;;691.80;2073.60;;;;;;5046236;28;20496;-78
2021/07/07 04:45:21;;;;;;;14.25;11.40;;;691.80;2073.60;;;;;;5047265;28;20021;-78
2021/07/07 04:47:47;;;;;;;19.55;13.02;;;691.90;2073.60;;;;;;5039560;28;20021;-78
2021/07/07 04:50:17;;;;;;;18.33;11.75;;;692.10;2022.40;;;;;;5042886;28;20025;-78
2021/07/07 04:52:58;;;;;;;15.73;11.23;;;716.90;2048.00;;;;;;5040833;28;20049;-79
2021/07/07 04:55:28;;;;;;;15.32;10.52;;;716.80;2048.00;;;;;;5040775;28;20111;-78
2021/07/07 04:57:56;;;;;;;16.75;12.13;;;716.90;2022.40;;;;;;5051482;28;20029;-78
2021/07/07 05:00:25;;;;;;;12.65;10.45;;;717.20;2022.40;;;;;;5036306;28;20068;-78
2021/07/07 05:02:52;;;;;;;18.90;12.50;;;717.30;1996.80;;;;;;5040466;28;20498;-78
2021/07/07 05:05:29;;;;;;;16.98;11.20;;;717.50;1996.80;;;;;;5041488;28;20033;-78
2021/07/07 05:07:58;;;;;;;18.80;10.25;;;717.70;1971.20;;;;;;5047040;28;20021;-79
2021/07/07 05:10:24;;;;;;;16.85;11.63;;;742.40;1996.80;;;;;;5049608;28;20025;-78
2021/07/07 05:13:08;;;;;;;17.33;10.68;;;742.50;1996.80;;;;;;5045380;28;20574;-79
2021/07/07 05:15:34;;;;;;;18.77;11.07;;;742.90;1971.20;;;;;;5036926;28;20109;-78
2021/07/07 05:18:03;;;;;;;17.08;11.82;;;743.10;1945.60;;;;;;5044146;28;20071;-79
2021/07/07 05:20:30;;;;;;;15.98;10.20;;;743.20;1945.60;;;;;;5049117;28;20090;-80
2021/07/07 05:23:06;;;;;;;13.32;9.55;;;768.10;1894.40;;;;;;5037349;28;20026;-79
2021/07/07 05:25:42;;;;;;;15.63;11.32;;;768.20;1868.80;;;;;;5037415;28;20033;-79
2021/07/07 05:28:12;;;;;;;18.05;11.18;;;768.30;1868.80;;;;;;5045987;28;20045;-79
2021/07/07 05:30:38;;;;;;;16.08;10.75;;;768.50;1868.80;;;;;;5064007;28;20029;-79
2021/07/07 05:33:11;;;;;;;18.80;10.15;;;768.50;1843.20;;;;;;5087597;28;20074;-79
2021/07/07 05:35:52;;;;;;;18.27;11.13;;;793.60;1817.60;;;;;;5084200;28;20584;-79
2021/07/07 05:38:40;;;;;;;19.27;10.50;;;793.80;1817.60;;;;;;5077499;28;20023;-78
2021/07/07 05:41:05;;;;;;;19.50;10.52;;;793.90;1817.60;;;;;;5066852;28;20052;-79
2021/07/07 05:43:34;;;;;;;14.70;10.38;;;794.00;1817.60;;;;;;5089978;28;20048;-79
2021/07/07 05:46:00;;;;;;;21.38;11.80;;;794.30;1766.40;;;;;;5079382;28;20034;-79
2021/07/07 05:48:37;;;;;;;28.45;10.82;;;819.20;1766.40;;;;;;5087155;28;20031;-79
2021/07/07 05:51:12;;;;;;;20.25;10.43;;;819.50;1740.80;;;;;;5068504;28;20028;-79
2021/07/07 05:53:38;;;;;;;16.90;11.38;;;819.70;1715.20;;;;;;5060540;28;20040;-80
2021/07/07 05:56:04;;;;;;;18.80;10.98;;;819.70;1740.80;;;;;;5073070;28;20037;-79
2021/07/07 05:58:30;;;;;;;21.73;10.45;;;819.90;1715.20;;;;;;5073628;28;20021;-79
2021/07/07 06:00:58;;;;;;;18.75;11.27;;;844.80;1715.20;;;;;;5086497;28;20012;-80
2021/07/07 06:03:27;;;;;;;22.27;10.82;;;845.00;1689.60;;;;;;5084023;28;20020;-79
2021/07/07 06:05:53;;;;;;;16.05;11.25;;;845.00;1715.20;;;;;;5068012;28;20024;-79
2021/07/07 06:08:18;;;;;;;15.15;12.18;;;845.30;1689.60;;;;;;5072201;28;20098;-79
2021/07/07 06:10:47;;;;;;;13.55;10.43;;;845.40;1689.60;;;;;;5083852;28;20049;-79
2021/07/07 06:13:13;;;;;;;20.23;10.32;;;845.50;1664.00;;;;;;5079544;28;20425;-79
2021/07/07 06:15:57;;;;;;;20.35;11.45;;;845.60;1664.00;;;;;;5078794;28;20445;-80
2021/07/07 06:18:28;;;;;;;25.65;13.05;;;845.50;1689.60;;;;;;5065518;28;20020;-79
2021/07/07 06:21:19;;;;;;;14.18;9.63;;;870.40;1664.00;;;;;;5063533;28;20044;-80
2021/07/07 06:23:48;;;;;;;17.48;10.40;;;870.40;1638.40;;;;;;5062632;28;20498;-80
2021/07/07 06:26:13;;;;;;;17.33;10.57;;;870.60;1638.40;;;;;;5068387;28;20048;-79
2021/07/07 06:28:39;;;;;;;12.27;10.60;;;870.90;1612.80;;;;;;5077142;28;20056;-79
2021/07/07 06:31:08;;;;;;;14.55;9.77;;;870.80;1638.40;;;;;;5076424;28;20027;-80
2021/07/07 06:33:34;;;;;;;17.40;10.30;;;871.10;1612.80;;;;;;5085920;28;20036;-80
2021/07/07 06:36:00;;;;;;;12.77;9.27;;;870.90;1612.80;;;;;;5069662;28;20352;-80
2021/07/07 06:38:31;;;;;;;15.38;9.80;;;871.10;1587.20;;;;;;5087879;28;20091;-80
2021/07/07 06:41:03;;;;;;;17.45;10.35;;;871.30;1561.60;;;;;;5072810;28;20428;-79
2021/07/07 06:43:29;;;;;;;13.20;9.98;;;871.30;1561.60;;;;;;5083636;28;20029;-79
2021/07/07 06:46:03;;;;;;;17.77;9.68;;;896.10;1561.60;;;;;;5077066;28;20360;-79
2021/07/07 06:48:32;;;;;;;18.03;10.27;;;896.10;1561.60;;;;;;5080122;28;20024;-80
2021/07/07 06:51:04;;;;;;;12.98;9.70;;;871.30;1561.60;;;;;;5070760;28;20032;-79
2021/07/07 06:53:45;;;;;;;15.73;9.85;;;896.10;1510.40;;;;;;5067412;28;20433;-80
2021/07/07 06:56:26;;;;;;;13.07;10.65;;;896.40;1510.40;;;;;;5068175;28;20036;-79
2021/07/07 06:59:13;;;;;;;15.07;9.77;;;896.80;1459.20;;;;;;5087295;28;20051;-80
2021/07/07 07:01:42;;;;;;;9.57;8.23;;;896.80;1484.80;;;;;;5072400;28;20020;-80
2021/07/07 07:04:08;;;;;;;10.82;9.45;;;896.90;1459.20;;;;;;5090022;28;20107;-80
2021/07/07 07:06:35;;;;;;;15.15;8.43;;;922.10;1433.60;;;;;;5091887;28;20153;-79
2021/07/07 07:09:07;;;;;;;15.68;9.50;;;922.40;1408.00;;;;;;5065823;28;20033;-80
2021/07/07 07:11:36;;;;;;;11.88;8.63;;;922.30;1408.00;;;;;;5060067;28;20596;-80
2021/07/07 07:14:11;;;;;;;11.82;8.70;;;921.90;1433.60;;;;;;5086369;28;20409;-80
2021/07/07 07:16:42;;;;;;;12.57;7.90;;;922.10;1408.00;;;;;;5072338;28;20165;-79
2021/07/07 07:19:08;;;;;;;14.85;9.23;;;922.30;1356.80;;;;;;5060887;28;20036;-80
2021/07/07 07:21:40;;;;;;;11.38;8.32;;;922.10;1408.00;;;;;;5082716;28;20387;-80
2021/07/07 07:24:06;;;;;;;11.88;8.43;;;922.30;1408.00;;;;;;5061400;28;20024;-80
2021/07/07 07:26:33;;;;;;;11.98;8.63;;;947.20;1356.80;;;;;;5062765;28;20398;-80
2021/07/07 07:29:08;;;;;;;15.00;8.60;;;947.30;1331.20;;;;;;5083648;28;20064;-80
2021/07/07 07:31:33;;;;;;;;;;;922.20;1356.80;;;;;;5071121;28;20364;-79
2021/07/07 07:34:13;;;;;;;10.82;7.43;;;947.30;1305.60;;;;;;5070252;28;19923;-80
2021/07/07 07:36:39;;;;;;;9.77;8.32;;;947.60;1305.60;;;;;;5067771;28;20028;-79
2021/07/07 07:39:24;;;;;;;14.90;8.30;;;947.80;1280.00;;;;;;5063749;28;20024;-79
2021/07/07 07:41:52;;;;;;;10.98;8.27;;;947.70;1280.00;;;;;;5083296;28;20027;-79
2021/07/07 07:44:21;;;;;;;11.93;8.30;;;947.70;1280.00;;;;;;5076816;28;20028;-79
2021/07/07 07:46:56;;;;;;;12.95;8.45;;;947.80;1305.60;;;;;;5081891;28;20020;-80
2021/07/07 07:49:22;;;;;;;17.35;8.68;;;947.90;1280.00;;;;;;5089201;28;20054;-79
2021/07/07 07:51:48;;;;;;;8.50;7.38;;;947.90;1305.60;;;;;;5083216;28;20060;-80
2021/07/07 07:54:14;;;;;;;9.63;7.25;;;972.90;1280.00;;;;;;5071734;28;20028;-81
2021/07/07 07:56:42;;;;;;;10.32;7.25;;;948.10;1254.40;;;;;;5075985;28;20024;-79
2021/07/07 07:59:11;;;;;;;14.60;7.90;;;947.90;1228.80;;;;;;5075571;28;20016;-81
2021/07/07 08:01:37;;;;;;;11.95;8.10;;;972.80;1254.40;;;;;;5082592;28;20104;-79
2021/07/07 08:04:05;;;;;;;11.77;7.57;;;947.80;1280.00;;;;;;5086048;28;20537;-78
2021/07/07 08:06:34;;;;;;;17.38;9.05;;;972.80;1280.00;;;;;;5092142;28;20039;-80
2021/07/07 08:09:03;;;;;;;11.57;7.72;;;948.10;1254.40;;;;;;5070912;28;20391;-80
2021/07/07 08:11:29;;;;;;;14.13;8.95;;;973.20;1254.40;;;;;;5081248;28;20024;-81
2021/07/07 08:13:55;;;;;;;13.80;8.93;;;973.50;1254.40;;;;;;5069367;28;20036;-81
2021/07/07 08:16:21;;;;;;;9.43;7.95;;;973.20;1280.00;;;;;;5064967;28;20094;-81
2021/07/07 08:18:47;;;;;;;12.27;7.35;;;973.50;1254.40;;;;;;5086161;28;20020;-80
2021/07/07 08:21:13;;;;;;;14.23;7.30;;;973.40;1254.40;;;;;;5083916;28;20441;-80
2021/07/07 08:23:39;;;;;;;13.45;7.57;;;973.60;1228.80;;;;;;5087859;28;20054;-80
2021/07/07 08:26:05;;;;;;;11.88;7.32;;;973.70;1228.80;;;;;;5084375;28;20499;-80
2021/07/07 08:28:31;;;;;;;8.27;6.72;;;998.70;1228.80;;;;;;5084017;28;20094;-80
2021/07/07 08:30:57;;;;;;;8.30;6.60;;;998.90;1203.20;;;;;;5069012;28;20025;-80
2021/07/07 08:33:38;;;;;;;9.18;6.78;;;999.00;1203.20;;;;;;5081538;28;20039;-81
2021/07/07 08:36:22;;;;;;;8.73;6.15;;;998.80;1177.60;;;;;;5062092;28;20034;-80
2021/07/07 08:38:49;;;;;;;12.35;6.85;;;998.80;1177.60;;;;;;5085699;28;20308;-81
2021/07/07 08:41:18;;;;;;;5.82;5.15;;;999.00;1203.20;;;;;;5079538;28;20013;-81
2021/07/07 08:43:52;;;;;;;7.60;5.97;;;998.90;1177.60;;;;;;5072088;28;20031;-80
2021/07/07 08:46:18;;;;;;;9.00;6.57;;;1024.00;1152.00;;;;;;5075619;28;20039;-81
2021/07/07 08:48:46;;;;;;;7.75;6.13;;;1024.00;1126.40;;;;;;5060241;28;20028;-80
2021/07/07 08:51:11;;;;;;;7.22;5.70;;;1024.00;1126.40;;;;;;5074951;28;20394;-80
2021/07/07 08:53:41;;;;;;;9.60;6.97;;;1024.10;1126.40;;;;;;5076503;28;20449;-80
2021/07/07 08:56:09;;;;;;;10.10;6.53;;;1024.10;1152.00;;;;;;5072364;28;20554;-81
2021/07/07 08:58:35;;;;;;;10.68;6.85;;;1024.00;1126.40;;;;;;5082020;28;20095;-80
2021/07/07 09:01:02;;;;;;;8.18;6.82;;;1024.40;1075.20;;;;;;5068542;28;20813;-82
2021/07/07 09:03:31;;;;;;;7.65;6.15;;;1024.00;1100.80;;;;;;5074104;28;20051;-82
2021/07/07 09:06:03;;;;;;;9.43;6.57;;;1024.00;1100.80;;;;;;5061690;28;20024;-80
2021/07/07 09:08:35;;;;;;;7.75;6.38;;;1024.60;1075.20;;;;;;5078549;28;20029;-80
2021/07/07 09:11:22;;;;;;;7.20;6.50;;;1049.70;1075.20;;;;;;5055674;28;20024;-80
2021/07/07 09:14:14;;;;;;;9.80;7.15;;;1024.70;1049.60;;;;;;5077008;28;20119;-80
2021/07/07 09:17:01;;;;;;;8.82;6.65;;;1024.90;1024.00;;;;;;5071623;28;20023;-79
2021/07/07 09:19:40;;;;;;;7.88;7.07;;;1024.90;1024.00;;;;;;5074891;28;20077;-80
2021/07/07 09:22:13;;;;;;;10.50;7.50;;;1049.70;1024.00;;;;;;5081450;28;20008;-80
2021/07/07 09:24:44;;;;;;;7.45;6.30;;;1049.90;1024.00;;;;;;5086611;28;20510;-79
2021/07/07 09:27:25;;;;;;;8.85;6.43;;;1049.60;1049.60;;;;;;5078408;28;20390;-81
2021/07/07 09:30:05;;;;;;;7.72;6.88;;;1049.60;1024.00;;;;;;5060631;28;20067;-80
2021/07/07 09:32:31;;;;;;;9.15;7.55;;;1049.90;1024.00;;;;;;5073637;28;20111;-79
2021/07/07 09:35:02;;;;;;;7.85;6.80;;;1050.40;998.40;;;;;;5065776;28;20060;-80
2021/07/07 09:37:34;;;;;;;10.00;6.43;;;1075.20;998.40;;;;;;5081583;28;20028;-80
2021/07/07 09:40:08;;;;;;;8.65;6.25;;;1075.60;972.80;;;;;;5081642;28;20447;-80
2021/07/07 09:42:47;;;;;;;8.63;6.60;;;1075.80;972.80;;;;;;5063842;28;20058;-80
2021/07/07 09:45:23;;;;;;;7.45;6.72;;;1075.70;972.80;;;;;;5071952;28;20046;-79
2021/07/07 09:47:50;;;;;;;7.80;7.00;;;1075.80;947.20;;;;;;5070921;28;20028;-81
2021/07/07 09:50:17;;;;;;;8.65;7.25;;;1075.60;972.80;;;;;;5078361;28;20495;-80
2021/07/07 09:52:43;;;;;;;10.55;8.07;;;1075.70;947.20;;;;;;5054640;28;20473;-80
2021/07/07 09:55:11;;;;;;;9.45;7.30;;;1100.80;998.40;;;;;;5073937;28;20036;-80
2021/07/07 09:57:44;;;;;;;10.85;8.30;;;1075.90;972.80;;;;;;5052242;28;20391;-80
2021/07/07 10:00:22;;;;;;;9.40;7.70;;;1075.90;972.80;;;;;;5080286;28;20049;-80
2021/07/07 10:03:09;;;;;;;7.53;6.82;;;1076.00;972.80;;;;;;5063113;28;20017;-79
2021/07/07 10:05:41;;;;;;;7.80;6.65;;;1101.00;972.80;;;;;;5059894;28;20057;-79
2021/07/07 10:08:23;;;;;;;8.02;7.22;;;1101.10;947.20;;;;;;5079568;28;20026;-79
2021/07/07 10:10:50;;;;;;;10.18;8.10;;;1101.30;972.80;;;;;;5072909;28;20021;-80
2021/07/07 10:13:16;;;;;;;9.02;7.85;;;1101.40;947.20;;;;;;5080901;28;20378;-80
2021/07/07 10:15:42;;;;;;;10.27;9.18;;;1101.30;947.20;;;;;;5059890;28;20020;-80
2021/07/07 10:18:15;;;;;;;12.77;8.05;;;1101.70;947.20;;;;;;5071373;28;20486;-79
2021/07/07 10:20:40;;;;;;;8.30;7.40;;;1126.40;972.80;;;;;;5068562;28;20033;-81
2021/07/07 10:23:12;;;;;;;8.70;7.82;;;1127.10;947.20;;;;;;5061458;28;20046;-79
2021/07/07 10:25:42;;;;;;;9.00;7.75;;;1101.60;947.20;;;;;;5077426;28;20481;-79
2021/07/07 10:28:17;;;;;;;7.68;6.95;;;1075.90;972.80;;;;;;5069542;28;20020;-79
2021/07/07 10:31:04;;;;;;;10.98;7.15;;;1101.00;972.80;;;;;;5062189;28;20501;-80
2021/07/07 10:33:39;;;;;;;7.78;6.45;;;1101.30;972.80;;;;;;5082045;28;20143;-80
2021/07/07 10:36:24;;;;;;;7.85;7.00;;;1101.40;947.20;;;;;;5082824;28;20015;-79
2021/07/07 10:39:06;;;;;;;9.20;6.97;;;1101.30;972.80;;;;;;5082138;28;20027;-79
2021/07/07 10:41:45;;;;;;;11.77;7.18;;;1101.30;947.20;;;;;;5067244;28;20027;-79
2021/07/07 10:44:27;;;;;;;7.72;6.93;;;1126.40;972.80;;;;;;5071221;28;20028;-78
2021/07/07 10:47:10;;;;;;;8.00;7.10;;;1101.70;947.20;;;;;;5062089;28;20028;-78
2021/07/07 10:49:38;;;;;;;12.00;7.53;;;1101.70;921.60;;;;;;5066975;28;20039;-79
2021/07/07 10:52:17;;;;;;;8.43;7.53;;;1126.40;947.20;;;;;;5078794;28;20374;-79
2021/07/07 10:55:01;;;;;;;8.32;7.50;;;1126.90;947.20;;;;;;5082991;28;20016;-80
2021/07/07 10:57:37;;;;;;;10.43;7.47;;;1126.90;947.20;;;;;;5081521;28;20474;-79
2021/07/07 11:00:29;;;;;;;8.57;7.30;;;1126.40;972.80;;;;;;5071263;28;20052;-79
2021/07/07 11:03:31;;;;;;;8.95;6.40;;;1127.10;921.60;;;;;;5064297;28;20069;-79
2021/07/07 11:05:59;;;;;;;7.82;7.03;;;1127.20;921.60;;;;;;5076965;28;20013;-79
2021/07/07 11:08:40;;;;;;;9.07;7.78;;;1127.30;921.60;;;;;;5085844;28;20103;-79
2021/07/07 11:11:19;;;;;;;9.70;7.70;;;1127.10;921.60;;;;;;5064343;28;20025;-79
2021/07/07 11:13:57;;;;;;;9.70;7.10;;;1127.20;921.60;;;;;;5068194;28;20055;-78
2021/07/07 11:16:24;;;;;;;11.02;7.18;;;1126.90;921.60;;;;;;5076637;28;20028;-78
2021/07/07 11:18:53;;;;;;;8.30;6.60;;;1127.00;921.60;;;;;;5065477;28;20020;-77
2021/07/07 11:21:19;;;;;;;7.75;6.43;;;1126.90;921.60;;;;;;5078759;28;20025;-77
2021/07/07 11:23:48;;;;;;;9.38;7.88;;;1127.10;921.60;;;;;;5079041;28;20021;-77
2021/07/07 11:26:20;;;;;;;9.60;7.47;;;1126.70;947.20;;;;;;5082342;28;20040;-77
2021/07/07 11:28:49;;;;;;;7.35;6.65;;;1126.40;947.20;;;;;;5063457;28;20078;-77
2021/07/07 11:31:21;;;;;;;8.07;7.28;;;1126.70;921.60;;;;;;5085662;28;20055;-78
2021/07/07 11:34:02;;;;;;;12.43;6.80;;;1126.50;921.60;;;;;;5065420;28;20032;-79
2021/07/07 11:36:28;;;;;;;10.43;6.95;;;1126.70;921.60;;;;;;5086877;28;20048;-77
2021/07/07 11:39:04;;;;;;;8.93;7.60;;;1152.00;896.00;;;;;;5070000;28;20055;-78
2021/07/07 11:41:30;;;;;;;14.15;6.88;;;1152.10;896.00;;;;;;5083535;28;20020;-79
2021/07/07 11:43:55;;;;;;;8.02;7.22;;;1152.00;896.00;;;;;;5084096;28;20463;-78
2021/07/07 11:46:23;;;;;;;8.10;6.93;;;1127.30;896.00;;;;;;5073173;28;20035;-79
2021/07/07 11:48:51;;;;;;;9.50;7.50;;;1152.70;870.40;;;;;;5069604;28;20024;-83
2021/07/07 11:51:24;;;;;;;9.35;7.45;;;1152.30;870.40;;;;;;5073930;28;20028;-83
2021/07/07 11:53:53;;;;;;;8.38;6.47;;;1152.10;870.40;;;;;;5079871;28;20027;-80
2021/07/07 11:56:25;;;;;;;6.90;6.20;;;1152.50;870.40;;;;;;5083466;28;20045;-79
2021/07/07 11:58:56;;;;;;;9.52;6.18;;;1152.70;870.40;;;;;;5080423;28;20021;-80
2021/07/07 12:01:33;;;;;;;23.98;9.90;;;1152.50;870.40;;;;;;5082798;28;20485;-79
2021/07/07 12:04:14;;;;;;;7.50;6.72;;;1177.70;844.80;;;;;;5069261;28;20020;-78
2021/07/07 12:06:44;;;;;;;11.32;7.70;;;1177.60;844.80;;;;;;5085199;28;20036;-79
2021/07/07 12:09:16;;;;;;;7.93;6.63;;;1178.20;844.80;;;;;;5070852;28;20031;-79
2021/07/07 12:12:05;;;;;;;10.02;6.82;;;1178.10;844.80;;;;;;5085035;28;20117;-79
2021/07/07 12:14:38;;;;;;;9.20;7.53;;;1178.10;844.80;;;;;;5080834;28;20029;-78
2021/07/07 12:17:09;;;;;;;9.27;6.72;;;1203.20;844.80;;;;;;5065027;28;20016;-78
2021/07/07 12:19:38;;;;;;;8.68;6.95;;;1178.10;844.80;;;;;;5083629;28;20024;-77
2021/07/07 12:22:21;;;;;;;10.05;7.75;;;1178.40;844.80;;;;;;5089708;28;20024;-77
2021/07/07 12:24:47;;;;;;;8.02;7.22;;;1203.70;844.80;;;;;;5085044;28;20028;-77